FR-0300 weather

Plateau De La Calme Airport
Font Romeu-Odeillo, Languedoc-Roussillon, France

Public forecast

Using degrees Celsius for public forecast. Weather courtesy of forecast.io.

METAR (pilot weather report)

Report is more than 6 hours old.

Closest report is Pirineus - la Seu d'Urgel Airport, 28.8 nm (53.3 km) WSW. Retrieved 2019/09/22 17:00 UTC (9 hours ago):

LESU 221700Z 24007KT 9999 FEW048 22/11 Q1014

TAF (pilot weather forecast)

Closest forecast is Pirineus - la Seu d'Urgel Airport, 28.8 nm (53.3 km) WSW. Retrieved 2019/09/23 03:00 UTC (0 seconds ago):

TAF LESU 230200Z 2303/2403 VRB03KT 9999 FEW060 TX25/2315Z TN08/2305Z BECMG 2310/2312 20010KT BECMG 2319/2321 VRB02KT